sensor_id;sensor_type;location;lat;lon;timestamp;temperature;humidity
2539;DHT22;1280;49.760;9.664;2023-04-08T00:00:24;8.90;77.80
2539;DHT22;1280;49.760;9.664;2023-04-08T00:03:03;8.90;77.80
2539;DHT22;1280;49.760;9.664;2023-04-08T00:05:42;8.80;77.80
2539;DHT22;1280;49.760;9.664;2023-04-08T00:08:14;8.80;77.80
2539;DHT22;1280;49.760;9.664;2023-04-08T00:10:44;8.80;77.70
2539;DHT22;1280;49.760;9.664;2023-04-08T00:13:22;8.70;77.50
2539;DHT22;1280;49.760;9.664;2023-04-08T00:15:55;8.70;77.60
2539;DHT22;1280;49.760;9.664;2023-04-08T00:18:27;8.60;77.60
2539;DHT22;1280;49.760;9.664;2023-04-08T00:21:02;8.60;77.70
2539;DHT22;1280;49.760;9.664;2023-04-08T00:23:36;8.60;77.70
2539;DHT22;1280;49.760;9.664;2023-04-08T00:26:10;8.60;77.80
2539;DHT22;1280;49.760;9.664;2023-04-08T00:28:53;8.60;77.80
2539;DHT22;1280;49.760;9.664;2023-04-08T00:31:33;8.60;77.80
2539;DHT22;1280;49.760;9.664;2023-04-08T00:34:11;8.50;77.60
2539;DHT22;1280;49.760;9.664;2023-04-08T00:36:42;8.50;77.60
2539;DHT22;1280;49.760;9.664;2023-04-08T00:39:17;8.50;77.40
2539;DHT22;1280;49.760;9.664;2023-04-08T00:41:48;8.40;77.60
2539;DHT22;1280;49.760;9.664;2023-04-08T00:44:40;8.40;77.60
2539;DHT22;1280;49.760;9.664;2023-04-08T00:47:12;8.40;77.40
2539;DHT22;1280;49.760;9.664;2023-04-08T00:49:52;8.40;77.60
2539;DHT22;1280;49.760;9.664;2023-04-08T00:52:23;8.40;77.60
2539;DHT22;1280;49.760;9.664;2023-04-08T00:55:04;8.40;77.40
2539;DHT22;1280;49.760;9.664;2023-04-08T00:57:44;8.30;77.50
2539;DHT22;1280;49.760;9.664;2023-04-08T01:00:31;8.30;77.50
2539;DHT22;1280;49.760;9.664;2023-04-08T01:03:11;8.30;77.60
2539;DHT22;1280;49.760;9.664;2023-04-08T01:05:55;8.40;77.70
2539;DHT22;1280;49.760;9.664;2023-04-08T01:08:29;8.40;77.70
2539;DHT22;1280;49.760;9.664;2023-04-08T01:11:09;8.40;77.80
2539;DHT22;1280;49.760;9.664;2023-04-08T01:13:47;8.50;77.80
2539;DHT22;1280;49.760;9.664;2023-04-08T01:16:29;8.50;77.60
2539;DHT22;1280;49.760;9.664;2023-04-08T01:19:02;8.50;77.60
2539;DHT22;1280;49.760;9.664;2023-04-08T01:21:37;8.50;77.60
2539;DHT22;1280;49.760;9.664;2023-04-08T01:24:10;8.40;77.60
2539;DHT22;1280;49.760;9.664;2023-04-08T01:26:52;8.40;77.60
2539;DHT22;1280;49.760;9.664;2023-04-08T01:29:25;8.40;77.60
2539;DHT22;1280;49.760;9.664;2023-04-08T01:31:58;8.50;77.60
2539;DHT22;1280;49.760;9.664;2023-04-08T01:34:33;8.50;77.60
2539;DHT22;1280;49.760;9.664;2023-04-08T01:37:06;8.50;77.70
2539;DHT22;1280;49.760;9.664;2023-04-08T01:39:42;8.50;77.60
2539;DHT22;1280;49.760;9.664;2023-04-08T01:42:20;8.50;77.60
2539;DHT22;1280;49.760;9.664;2023-04-08T01:44:54;8.40;77.60
2539;DHT22;1280;49.760;9.664;2023-04-08T01:47:26;8.40;77.60
2539;DHT22;1280;49.760;9.664;2023-04-08T01:50:00;8.40;77.40
2539;DHT22;1280;49.760;9.664;2023-04-08T01:52:36;8.40;77.60
2539;DHT22;1280;49.760;9.664;2023-04-08T01:55:17;8.40;77.60
2539;DHT22;1280;49.760;9.664;2023-04-08T01:58:00;8.40;77.60
2539;DHT22;1280;49.760;9.664;2023-04-08T02:00:36;8.40;77.60
2539;DHT22;1280;49.760;9.664;2023-04-08T02:03:17;8.40;77.60
2539;DHT22;1280;49.760;9.664;2023-04-08T02:05:55;8.40;77.40
2539;DHT22;1280;49.760;9.664;2023-04-08T02:08:32;8.30;77.50
2539;DHT22;1280;49.760;9.664;2023-04-08T02:11:07;8.30;77.50
2539;DHT22;1280;49.760;9.664;2023-04-08T02:13:44;8.30;77.50
2539;DHT22;1280;49.760;9.664;2023-04-08T02:16:23;8.30;77.50
2539;DHT22;1280;49.760;9.664;2023-04-08T02:19:04;8.30;77.50
2539;DHT22;1280;49.760;9.664;2023-04-08T02:21:46;8.30;77.50
2539;DHT22;1280;49.760;9.664;2023-04-08T02:24:21;8.20;77.40
2539;DHT22;1280;49.760;9.664;2023-04-08T02:27:03;8.20;77.30
2539;DHT22;1280;49.760;9.664;2023-04-08T02:29:39;8.10;77.30
2539;DHT22;1280;49.760;9.664;2023-04-08T02:32:14;8.10;77.30
2539;DHT22;1280;49.760;9.664;2023-04-08T02:34:51;8.10;77.30
2539;DHT22;1280;49.760;9.664;2023-04-08T02:37:27;8.10;77.30
2539;DHT22;1280;49.760;9.664;2023-04-08T02:39:59;8.10;77.30
2539;DHT22;1280;49.760;9.664;2023-04-08T02:42:28;8.10;77.30
2539;DHT22;1280;49.760;9.664;2023-04-08T02:45:06;8.10;77.30
2539;DHT22;1280;49.760;9.664;2023-04-08T02:47:44;8.10;77.30
2539;DHT22;1280;49.760;9.664;2023-04-08T02:50:26;8.00;77.30
2539;DHT22;1280;49.760;9.664;2023-04-08T02:52:59;8.00;77.40
2539;DHT22;1280;49.760;9.664;2023-04-08T02:55:37;8.00;77.40
2539;DHT22;1280;49.760;9.664;2023-04-08T02:58:10;8.00;77.40
2539;DHT22;1280;49.760;9.664;2023-04-08T03:00:46;8.00;77.40
2539;DHT22;1280;49.760;9.664;2023-04-08T03:03:22;8.00;77.40
2539;DHT22;1280;49.760;9.664;2023-04-08T03:06:01;8.00;77.40
2539;DHT22;1280;49.760;9.664;2023-04-08T03:08:36;8.00;77.30
2539;DHT22;1280;49.760;9.664;2023-04-08T03:11:08;8.00;77.30
2539;DHT22;1280;49.760;9.664;2023-04-08T03:13:42;8.00;77.40
2539;DHT22;1280;49.760;9.664;2023-04-08T03:16:30;7.90;77.40
2539;DHT22;1280;49.760;9.664;2023-04-08T03:18:59;8.00;77.40
2539;DHT22;1280;49.760;9.664;2023-04-08T03:21:36;7.90;77.40
2539;DHT22;1280;49.760;9.664;2023-04-08T03:24:11;7.90;77.40
2539;DHT22;1280;49.760;9.664;2023-04-08T03:26:40;7.90;77.50
2539;DHT22;1280;49.760;9.664;2023-04-08T03:29:16;7.90;77.50
2539;DHT22;1280;49.760;9.664;2023-04-08T03:32:17;7.90;77.30
2539;DHT22;1280;49.760;9.664;2023-04-08T03:34:48;7.80;77.20
2539;DHT22;1280;49.760;9.664;2023-04-08T03:37:24;7.70;77.30
2539;DHT22;1280;49.760;9.664;2023-04-08T03:40:02;7.70;77.40
2539;DHT22;1280;49.760;9.664;2023-04-08T03:42:35;7.60;77.50
2539;DHT22;1280;49.760;9.664;2023-04-08T03:45:15;7.60;77.50
2539;DHT22;1280;49.760;9.664;2023-04-08T03:47:58;7.70;77.50
2539;DHT22;1280;49.760;9.664;2023-04-08T03:50:29;7.60;77.50
2539;DHT22;1280;49.760;9.664;2023-04-08T03:53:01;7.60;77.50
2539;DHT22;1280;49.760;9.664;2023-04-08T03:55:32;7.60;77.40
2539;DHT22;1280;49.760;9.664;2023-04-08T03:58:18;7.60;77.40
2539;DHT22;1280;49.760;9.664;2023-04-08T04:00:56;7.50;77.40
2539;DHT22;1280;49.760;9.664;2023-04-08T04:03:41;7.50;77.40
2539;DHT22;1280;49.760;9.664;2023-04-08T04:06:16;7.50;77.40
2539;DHT22;1280;49.760;9.664;2023-04-08T04:08:54;7.40;77.30
2539;DHT22;1280;49.760;9.664;2023-04-08T04:11:26;7.40;77.30
2539;DHT22;1280;49.760;9.664;2023-04-08T04:14:01;7.40;77.30
2539;DHT22;1280;49.760;9.664;2023-04-08T04:16:41;7.40;77.40
2539;DHT22;1280;49.760;9.664;2023-04-08T04:19:23;7.30;77.40
2539;DHT22;1280;49.760;9.664;2023-04-08T04:21:59;7.30;77.30
2539;DHT22;1280;49.760;9.664;2023-04-08T04:24:29;7.30;77.20
2539;DHT22;1280;49.760;9.664;2023-04-08T04:26:59;7.20;77.30
2539;DHT22;1280;49.760;9.664;2023-04-08T04:29:30;7.20;77.30
2539;DHT22;1280;49.760;9.664;2023-04-08T04:32:05;7.20;77.30
2539;DHT22;1280;49.760;9.664;2023-04-08T04:34:37;7.20;77.40
2539;DHT22;1280;49.760;9.664;2023-04-08T04:37:10;7.20;77.40
2539;DHT22;1280;49.760;9.664;2023-04-08T04:39:46;7.10;77.40
2539;DHT22;1280;49.760;9.664;2023-04-08T04:42:19;7.20;77.40
2539;DHT22;1280;49.760;9.664;2023-04-08T04:44:54;7.20;77.40
2539;DHT22;1280;49.760;9.664;2023-04-08T04:47:39;7.20;77.40
2539;DHT22;1280;49.760;9.664;2023-04-08T04:50:22;7.10;77.30
2539;DHT22;1280;49.760;9.664;2023-04-08T04:52:58;7.10;77.20
2539;DHT22;1280;49.760;9.664;2023-04-08T04:55:34;7.10;77.20
2539;DHT22;1280;49.760;9.664;2023-04-08T04:58:06;7.10;77.30
2539;DHT22;1280;49.760;9.664;2023-04-08T05:00:52;7.10;77.30
2539;DHT22;1280;49.760;9.664;2023-04-08T05:03:30;7.00;77.30
2539;DHT22;1280;49.760;9.664;2023-04-08T05:06:05;7.00;77.40
2539;DHT22;1280;49.760;9.664;2023-04-08T05:08:43;7.10;77.50
2539;DHT22;1280;49.760;9.664;2023-04-08T05:11:20;7.10;77.50
2539;DHT22;1280;49.760;9.664;2023-04-08T05:13:54;7.10;77.50
2539;DHT22;1280;49.760;9.664;2023-04-08T05:16:28;7.10;77.40
2539;DHT22;1280;49.760;9.664;2023-04-08T05:18:59;7.10;77.40
2539;DHT22;1280;49.760;9.664;2023-04-08T05:21:47;7.10;77.50
2539;DHT22;1280;49.760;9.664;2023-04-08T05:24:22;7.20;77.50
2539;DHT22;1280;49.760;9.664;2023-04-08T05:26:56;7.20;77.40
2539;DHT22;1280;49.760;9.664;2023-04-08T05:29:30;7.20;77.50
2539;DHT22;1280;49.760;9.664;2023-04-08T05:32:11;7.20;77.50
2539;DHT22;1280;49.760;9.664;2023-04-08T05:34:46;7.20;77.60
2539;DHT22;1280;49.760;9.664;2023-04-08T05:37:23;7.20;77.50
2539;DHT22;1280;49.760;9.664;2023-04-08T05:40:01;7.30;77.60
2539;DHT22;1280;49.760;9.664;2023-04-08T05:42:35;7.30;77.60
2539;DHT22;1280;49.760;9.664;2023-04-08T05:45:13;7.40;77.60
2539;DHT22;1280;49.760;9.664;2023-04-08T05:47:47;7.40;77.60
2539;DHT22;1280;49.760;9.664;2023-04-08T05:50:19;7.50;77.60
2539;DHT22;1280;49.760;9.664;2023-04-08T05:52:56;7.50;77.60
2539;DHT22;1280;49.760;9.664;2023-04-08T05:55:29;7.50;77.60
2539;DHT22;1280;49.760;9.664;2023-04-08T05:58:07;7.50;77.60
2539;DHT22;1280;49.760;9.664;2023-04-08T06:00:36;7.50;77.60
2539;DHT22;1280;49.760;9.664;2023-04-08T06:03:11;7.60;77.60
2539;DHT22;1280;49.760;9.664;2023-04-08T06:05:48;7.60;77.70
2539;DHT22;1280;49.760;9.664;2023-04-08T06:08:25;7.60;77.70
2539;DHT22;1280;49.760;9.664;2023-04-08T06:10:57;7.60;77.70
2539;DHT22;1280;49.760;9.664;2023-04-08T06:13:35;7.70;77.70
2539;DHT22;1280;49.760;9.664;2023-04-08T06:16:14;7.70;77.80
2539;DHT22;1280;49.760;9.664;2023-04-08T06:18:49;7.70;77.80
2539;DHT22;1280;49.760;9.664;2023-04-08T06:21:25;7.80;77.80
2539;DHT22;1280;49.760;9.664;2023-04-08T06:24:24;7.80;77.80
2539;DHT22;1280;49.760;9.664;2023-04-08T06:26:57;7.90;77.90
2539;DHT22;1280;49.760;9.664;2023-04-08T06:29:31;7.90;77.80
2539;DHT22;1280;49.760;9.664;2023-04-08T06:32:10;7.90;77.90
2539;DHT22;1280;49.760;9.664;2023-04-08T06:34:50;7.90;77.90
2539;DHT22;1280;49.760;9.664;2023-04-08T06:37:30;8.00;77.80
2539;DHT22;1280;49.760;9.664;2023-04-08T06:40:11;8.00;77.90
2539;DHT22;1280;49.760;9.664;2023-04-08T06:42:41;8.10;78.00
2539;DHT22;1280;49.760;9.664;2023-04-08T06:45:21;8.10;78.00
2539;DHT22;1280;49.760;9.664;2023-04-08T06:47:54;8.20;78.00
2539;DHT22;1280;49.760;9.664;2023-04-08T06:50:27;8.30;78.00
2539;DHT22;1280;49.760;9.664;2023-04-08T06:53:08;8.30;78.00
2539;DHT22;1280;49.760;9.664;2023-04-08T06:56:00;8.30;78.00
2539;DHT22;1280;49.760;9.664;2023-04-08T06:58:35;8.40;78.00
2539;DHT22;1280;49.760;9.664;2023-04-08T07:01:11;8.40;78.00
2539;DHT22;1280;49.760;9.664;2023-04-08T07:03:43;8.40;78.00
2539;DHT22;1280;49.760;9.664;2023-04-08T07:06:17;8.50;78.00
2539;DHT22;1280;49.760;9.664;2023-04-08T07:08:51;8.50;78.00
2539;DHT22;1280;49.760;9.664;2023-04-08T07:11:31;8.50;78.00
2539;DHT22;1280;49.760;9.664;2023-04-08T07:14:00;8.50;78.00
2539;DHT22;1280;49.760;9.664;2023-04-08T07:16:34;8.50;78.10
2539;DHT22;1280;49.760;9.664;2023-04-08T07:19:03;8.50;78.10
2539;DHT22;1280;49.760;9.664;2023-04-08T07:21:32;8.50;78.10
2539;DHT22;1280;49.760;9.664;2023-04-08T07:24:07;8.50;78.10
2539;DHT22;1280;49.760;9.664;2023-04-08T07:26:53;8.60;78.00
2539;DHT22;1280;49.760;9.664;2023-04-08T07:29:28;8.60;78.10
2539;DHT22;1280;49.760;9.664;2023-04-08T07:32:07;8.70;78.00
2539;DHT22;1280;49.760;9.664;2023-04-08T07:34:43;8.70;77.80
2539;DHT22;1280;49.760;9.664;2023-04-08T07:37:22;8.60;77.70
2539;DHT22;1280;49.760;9.664;2023-04-08T07:39:55;8.60;77.80
2539;DHT22;1280;49.760;9.664;2023-04-08T07:42:43;8.60;77.80
2539;DHT22;1280;49.760;9.664;2023-04-08T07:45:18;8.60;77.70
2539;DHT22;1280;49.760;9.664;2023-04-08T07:47:46;8.60;77.80
2539;DHT22;1280;49.760;9.664;2023-04-08T07:50:29;8.60;77.80
2539;DHT22;1280;49.760;9.664;2023-04-08T07:53:23;8.70;77.70
2539;DHT22;1280;49.760;9.664;2023-04-08T07:55:55;8.60;77.60
2539;DHT22;1280;49.760;9.664;2023-04-08T07:58:43;8.70;77.60
2539;DHT22;1280;49.760;9.664;2023-04-08T08:01:18;8.70;77.70
2539;DHT22;1280;49.760;9.664;2023-04-08T08:03:55;8.70;77.80
2539;DHT22;1280;49.760;9.664;2023-04-08T08:06:33;8.80;77.80
2539;DHT22;1280;49.760;9.664;2023-04-08T08:09:13;8.80;77.80
2539;DHT22;1280;49.760;9.664;2023-04-08T08:11:53;8.90;77.80
2539;DHT22;1280;49.760;9.664;2023-04-08T08:14:26;8.90;77.70
2539;DHT22;1280;49.760;9.664;2023-04-08T08:17:04;8.90;77.70
2539;DHT22;1280;49.760;9.664;2023-04-08T08:19:39;8.90;77.60
2539;DHT22;1280;49.760;9.664;2023-04-08T08:22:15;8.90;77.50
2539;DHT22;1280;49.760;9.664;2023-04-08T08:24:54;8.90;77.40
2539;DHT22;1280;49.760;9.664;2023-04-08T08:27:28;8.90;77.30
2539;DHT22;1280;49.760;9.664;2023-04-08T08:30:12;8.90;77.20
2539;DHT22;1280;49.760;9.664;2023-04-08T08:32:51;8.90;77.20
2539;DHT22;1280;49.760;9.664;2023-04-08T08:35:27;8.80;77.20
2539;DHT22;1280;49.760;9.664;2023-04-08T08:38:00;8.70;77.10
2539;DHT22;1280;49.760;9.664;2023-04-08T08:40:38;8.70;77.00
2539;DHT22;1280;49.760;9.664;2023-04-08T08:43:11;8.70;77.20
2539;DHT22;1280;49.760;9.664;2023-04-08T08:45:49;8.70;77.20
2539;DHT22;1280;49.760;9.664;2023-04-08T08:48:24;8.80;77.10
2539;DHT22;1280;49.760;9.664;2023-04-08T08:50:57;8.90;77.00
2539;DHT22;1280;49.760;9.664;2023-04-08T08:53:36;8.90;77.00
2539;DHT22;1280;49.760;9.664;2023-04-08T08:56:07;8.90;77.00
2539;DHT22;1280;49.760;9.664;2023-04-08T08:58:45;9.00;76.90
2539;DHT22;1280;49.760;9.664;2023-04-08T09:01:46;9.00;76.80
2539;DHT22;1280;49.760;9.664;2023-04-08T09:04:20;9.00;76.50
2539;DHT22;1280;49.760;9.664;2023-04-08T09:07:08;9.00;76.50
2539;DHT22;1280;49.760;9.664;2023-04-08T09:09:51;9.00;76.40
2539;DHT22;1280;49.760;9.664;2023-04-08T09:12:21;9.00;76.50
2539;DHT22;1280;49.760;9.664;2023-04-08T09:15:03;9.00;76.20
2539;DHT22;1280;49.760;9.664;2023-04-08T09:17:39;9.00;76.20
2539;DHT22;1280;49.760;9.664;2023-04-08T09:20:10;9.00;76.10
2539;DHT22;1280;49.760;9.664;2023-04-08T09:22:57;9.00;75.90
2539;DHT22;1280;49.760;9.664;2023-04-08T09:25:36;9.00;75.90
2539;DHT22;1280;49.760;9.664;2023-04-08T09:28:18;9.10;75.80
2539;DHT22;1280;49.760;9.664;2023-04-08T09:30:51;9.10;75.70
2539;DHT22;1280;49.760;9.664;2023-04-08T09:33:33;9.20;75.70
2539;DHT22;1280;49.760;9.664;2023-04-08T09:36:06;9.20;75.70
2539;DHT22;1280;49.760;9.664;2023-04-08T09:38:46;9.30;75.60
2539;DHT22;1280;49.760;9.664;2023-04-08T09:41:21;9.30;75.50
2539;DHT22;1280;49.760;9.664;2023-04-08T09:43:57;9.40;75.30
2539;DHT22;1280;49.760;9.664;2023-04-08T09:46:38;9.30;75.10
2539;DHT22;1280;49.760;9.664;2023-04-08T09:49:25;9.40;75.20
2539;DHT22;1280;49.760;9.664;2023-04-08T09:52:05;9.50;74.80
2539;DHT22;1280;49.760;9.664;2023-04-08T09:54:46;9.60;74.70
2539;DHT22;1280;49.760;9.664;2023-04-08T09:57:30;9.60;74.30
2539;DHT22;1280;49.760;9.664;2023-04-08T10:00:16;9.60;74.30
2539;DHT22;1280;49.760;9.664;2023-04-08T10:02:59;9.60;73.80
2539;DHT22;1280;49.760;9.664;2023-04-08T10:05:36;9.70;74.20
2539;DHT22;1280;49.760;9.664;2023-04-08T10:08:15;9.80;73.90
2539;DHT22;1280;49.760;9.664;2023-04-08T10:10:46;9.90;74.10
2539;DHT22;1280;49.760;9.664;2023-04-08T10:13:16;10.00;73.90
2539;DHT22;1280;49.760;9.664;2023-04-08T10:15:49;10.10;73.70
2539;DHT22;1280;49.760;9.664;2023-04-08T10:18:31;10.10;73.60
2539;DHT22;1280;49.760;9.664;2023-04-08T10:21:31;10.10;73.30
2539;DHT22;1280;49.760;9.664;2023-04-08T10:24:05;10.10;73.10
2539;DHT22;1280;49.760;9.664;2023-04-08T10:26:39;10.20;73.20
2539;DHT22;1280;49.760;9.664;2023-04-08T10:29:32;10.10;73.00
2539;DHT22;1280;49.760;9.664;2023-04-08T10:32:06;10.10;73.10
2539;DHT22;1280;49.760;9.664;2023-04-08T10:34:51;10.10;73.10
2539;DHT22;1280;49.760;9.664;2023-04-08T10:37:26;10.20;73.10
2539;DHT22;1280;49.760;9.664;2023-04-08T10:39:58;10.20;73.00
2539;DHT22;1280;49.760;9.664;2023-04-08T10:42:37;10.20;73.00
2539;DHT22;1280;49.760;9.664;2023-04-08T10:45:16;10.30;72.90
2539;DHT22;1280;49.760;9.664;2023-04-08T10:47:53;10.40;73.00
2539;DHT22;1280;49.760;9.664;2023-04-08T10:50:22;10.30;72.90
2539;DHT22;1280;49.760;9.664;2023-04-08T10:52:55;10.40;72.80
2539;DHT22;1280;49.760;9.664;2023-04-08T10:55:29;10.40;72.70
2539;DHT22;1280;49.760;9.664;2023-04-08T10:58:09;10.40;72.80
2539;DHT22;1280;49.760;9.664;2023-04-08T11:00:46;10.50;72.80
2539;DHT22;1280;49.760;9.664;2023-04-08T11:03:31;10.60;72.60
2539;DHT22;1280;49.760;9.664;2023-04-08T11:06:05;10.60;72.40
2539;DHT22;1280;49.760;9.664;2023-04-08T11:08:42;10.60;72.40
2539;DHT22;1280;49.760;9.664;2023-04-08T11:11:18;10.50;72.30
2539;DHT22;1280;49.760;9.664;2023-04-08T11:14:04;10.60;72.20
2539;DHT22;1280;49.760;9.664;2023-04-08T11:16:40;10.70;72.20
2539;DHT22;1280;49.760;9.664;2023-04-08T11:19:10;10.70;72.20
2539;DHT22;1280;49.760;9.664;2023-04-08T11:21:49;10.70;72.30
2539;DHT22;1280;49.760;9.664;2023-04-08T11:24:24;10.70;72.30
2539;DHT22;1280;49.760;9.664;2023-04-08T11:26:54;10.80;72.30
2539;DHT22;1280;49.760;9.664;2023-04-08T11:29:34;10.80;72.20
2539;DHT22;1280;49.760;9.664;2023-04-08T11:32:07;10.80;72.10
2539;DHT22;1280;49.760;9.664;2023-04-08T11:34:43;10.80;72.10
2539;DHT22;1280;49.760;9.664;2023-04-08T11:37:25;10.80;72.20
2539;DHT22;1280;49.760;9.664;2023-04-08T11:40:08;10.80;71.90
2539;DHT22;1280;49.760;9.664;2023-04-08T11:42:42;10.80;72.00
2539;DHT22;1280;49.760;9.664;2023-04-08T11:45:15;10.90;72.00
2539;DHT22;1280;49.760;9.664;2023-04-08T11:47:54;10.90;71.90
2539;DHT22;1280;49.760;9.664;2023-04-08T11:50:33;10.90;71.80
2539;DHT22;1280;49.760;9.664;2023-04-08T11:53:03;10.90;71.70
2539;DHT22;1280;49.760;9.664;2023-04-08T11:55:53;10.90;71.80
2539;DHT22;1280;49.760;9.664;2023-04-08T11:58:26;10.90;71.80
2539;DHT22;1280;49.760;9.664;2023-04-08T12:01:00;10.90;71.80
2539;DHT22;1280;49.760;9.664;2023-04-08T12:03:36;10.90;71.90
2539;DHT22;1280;49.760;9.664;2023-04-08T12:06:11;11.00;71.80
2539;DHT22;1280;49.760;9.664;2023-04-08T12:08:55;11.00;71.70
2539;DHT22;1280;49.760;9.664;2023-04-08T12:11:34;11.00;71.60
2539;DHT22;1280;49.760;9.664;2023-04-08T12:14:08;11.00;71.60
2539;DHT22;1280;49.760;9.664;2023-04-08T12:16:45;11.00;71.70
2539;DHT22;1280;49.760;9.664;2023-04-08T12:19:24;11.00;71.70
2539;DHT22;1280;49.760;9.664;2023-04-08T12:22:07;11.00;71.70
2539;DHT22;1280;49.760;9.664;2023-04-08T12:24:40;11.00;71.70
2539;DHT22;1280;49.760;9.664;2023-04-08T12:27:17;11.00;71.70
2539;DHT22;1280;49.760;9.664;2023-04-08T12:29:55;10.90;71.70
2539;DHT22;1280;49.760;9.664;2023-04-08T12:32:26;10.90;71.60
2539;DHT22;1280;49.760;9.664;2023-04-08T12:35:00;10.90;71.70
2539;DHT22;1280;49.760;9.664;2023-04-08T12:37:39;11.00;71.60
2539;DHT22;1280;49.760;9.664;2023-04-08T12:40:16;11.00;71.60
2539;DHT22;1280;49.760;9.664;2023-04-08T12:43:02;10.90;71.50
2539;DHT22;1280;49.760;9.664;2023-04-08T12:45:38;10.90;71.60
2539;DHT22;1280;49.760;9.664;2023-04-08T12:48:15;10.90;71.70
2539;DHT22;1280;49.760;9.664;2023-04-08T12:50:50;11.00;71.70
2539;DHT22;1280;49.760;9.664;2023-04-08T12:53:27;11.00;71.60
2539;DHT22;1280;49.760;9.664;2023-04-08T12:56:08;11.00;71.60
2539;DHT22;1280;49.760;9.664;2023-04-08T12:58:41;11.00;71.60
2539;DHT22;1280;49.760;9.664;2023-04-08T13:01:13;11.00;71.60
2539;DHT22;1280;49.760;9.664;2023-04-08T13:03:48;11.00;71.70
2539;DHT22;1280;49.760;9.664;2023-04-08T13:06:28;10.90;71.70
2539;DHT22;1280;49.760;9.664;2023-04-08T13:09:01;10.90;71.90
2539;DHT22;1280;49.760;9.664;2023-04-08T13:11:34;11.00;72.00
2539;DHT22;1280;49.760;9.664;2023-04-08T13:14:10;11.00;72.00
2539;DHT22;1280;49.760;9.664;2023-04-08T13:16:44;11.00;72.10
2539;DHT22;1280;49.760;9.664;2023-04-08T13:19:17;11.10;72.00
2539;DHT22;1280;49.760;9.664;2023-04-08T13:21:53;11.20;71.90
2539;DHT22;1280;49.760;9.664;2023-04-08T13:24:32;11.20;71.80
2539;DHT22;1280;49.760;9.664;2023-04-08T13:27:09;11.20;71.90
2539;DHT22;1280;49.760;9.664;2023-04-08T13:29:45;11.20;72.00
2539;DHT22;1280;49.760;9.664;2023-04-08T13:32:18;11.20;71.90
2539;DHT22;1280;49.760;9.664;2023-04-08T13:34:58;11.20;71.90
2539;DHT22;1280;49.760;9.664;2023-04-08T13:37:33;11.30;71.90
2539;DHT22;1280;49.760;9.664;2023-04-08T13:40:06;11.30;72.00
2539;DHT22;1280;49.760;9.664;2023-04-08T13:42:41;11.30;72.10
2539;DHT22;1280;49.760;9.664;2023-04-08T13:45:19;11.40;72.00
2539;DHT22;1280;49.760;9.664;2023-04-08T13:47:53;11.40;72.00
2539;DHT22;1280;49.760;9.664;2023-04-08T13:50:27;11.40;71.90
2539;DHT22;1280;49.760;9.664;2023-04-08T13:53:03;11.30;72.00
2539;DHT22;1280;49.760;9.664;2023-04-08T13:55:38;11.30;72.00
2539;DHT22;1280;49.760;9.664;2023-04-08T13:58:11;11.40;72.00
2539;DHT22;1280;49.760;9.664;2023-04-08T14:00:56;11.50;72.00
2539;DHT22;1280;49.760;9.664;2023-04-08T14:03:31;11.50;71.80
2539;DHT22;1280;49.760;9.664;2023-04-08T14:06:11;11.50;71.80
2539;DHT22;1280;49.760;9.664;2023-04-08T14:08:46;11.50;71.70
2539;DHT22;1280;49.760;9.664;2023-04-08T14:11:26;11.50;71.70
2539;DHT22;1280;49.760;9.664;2023-04-08T14:13:58;11.50;71.60
2539;DHT22;1280;49.760;9.664;2023-04-08T14:16:36;11.50;71.60
2539;DHT22;1280;49.760;9.664;2023-04-08T14:19:12;11.50;71.50
2539;DHT22;1280;49.760;9.664;2023-04-08T14:21:43;11.50;71.50
2539;DHT22;1280;49.760;9.664;2023-04-08T14:24:15;11.60;71.50
2539;DHT22;1280;49.760;9.664;2023-04-08T14:26:49;11.60;71.50
2539;DHT22;1280;49.760;9.664;2023-04-08T14:29:25;11.60;71.50
2539;DHT22;1280;49.760;9.664;2023-04-08T14:32:07;11.60;71.60
2539;DHT22;1280;49.760;9.664;2023-04-08T14:34:41;11.60;71.60
2539;DHT22;1280;49.760;9.664;2023-04-08T14:37:15;11.70;71.50
2539;DHT22;1280;49.760;9.664;2023-04-08T14:39:56;11.60;71.60
2539;DHT22;1280;49.760;9.664;2023-04-08T14:42:32;11.70;71.60
2539;DHT22;1280;49.760;9.664;2023-04-08T14:45:02;11.70;71.40
2539;DHT22;1280;49.760;9.664;2023-04-08T14:47:39;11.80;71.40
2539;DHT22;1280;49.760;9.664;2023-04-08T14:50:12;11.80;71.30
2539;DHT22;1280;49.760;9.664;2023-04-08T14:52:47;11.80;71.20
2539;DHT22;1280;49.760;9.664;2023-04-08T14:55:19;11.70;71.20
2539;DHT22;1280;49.760;9.664;2023-04-08T14:57:59;11.70;71.20
2539;DHT22;1280;49.760;9.664;2023-04-08T15:00:32;11.70;71.30
2539;DHT22;1280;49.760;9.664;2023-04-08T15:03:07;11.70;71.30
2539;DHT22;1280;49.760;9.664;2023-04-08T15:05:54;11.70;71.20
2539;DHT22;1280;49.760;9.664;2023-04-08T15:08:25;11.70;71.20
2539;DHT22;1280;49.760;9.664;2023-04-08T15:10:59;11.80;71.20
2539;DHT22;1280;49.760;9.664;2023-04-08T15:13:34;11.80;71.10
2539;DHT22;1280;49.760;9.664;2023-04-08T15:16:13;11.80;71.00
2539;DHT22;1280;49.760;9.664;2023-04-08T15:18:46;11.80;71.10
2539;DHT22;1280;49.760;9.664;2023-04-08T15:21:25;11.80;71.10
2539;DHT22;1280;49.760;9.664;2023-04-08T15:23:55;11.80;71.00
2539;DHT22;1280;49.760;9.664;2023-04-08T15:26:28;11.70;71.10
2539;DHT22;1280;49.760;9.664;2023-04-08T15:29:04;11.70;71.10
2539;DHT22;1280;49.760;9.664;2023-04-08T15:31:40;11.70;71.10
2539;DHT22;1280;49.760;9.664;2023-04-08T15:34:16;11.70;71.10
2539;DHT22;1280;49.760;9.664;2023-04-08T15:36:53;11.60;71.20
2539;DHT22;1280;49.760;9.664;2023-04-08T15:39:31;11.60;71.30
2539;DHT22;1280;49.760;9.664;2023-04-08T15:42:06;11.60;71.30
2539;DHT22;1280;49.760;9.664;2023-04-08T15:44:40;11.60;71.20
2539;DHT22;1280;49.760;9.664;2023-04-08T15:47:29;11.60;71.30
2539;DHT22;1280;49.760;9.664;2023-04-08T15:50:06;11.60;71.30
2539;DHT22;1280;49.760;9.664;2023-04-08T15:52:46;11.60;71.30
2539;DHT22;1280;49.760;9.664;2023-04-08T15:55:18;11.60;71.30
2539;DHT22;1280;49.760;9.664;2023-04-08T15:57:57;11.50;71.40
2539;DHT22;1280;49.760;9.664;2023-04-08T16:00:31;11.60;71.30
2539;DHT22;1280;49.760;9.664;2023-04-08T16:03:03;11.60;71.40
2539;DHT22;1280;49.760;9.664;2023-04-08T16:05:47;11.60;71.40
2539;DHT22;1280;49.760;9.664;2023-04-08T16:08:19;11.70;71.20
2539;DHT22;1280;49.760;9.664;2023-04-08T16:11:02;11.60;71.10
2539;DHT22;1280;49.760;9.664;2023-04-08T16:13:35;11.60;71.20
2539;DHT22;1280;49.760;9.664;2023-04-08T16:16:15;11.60;71.10
2539;DHT22;1280;49.760;9.664;2023-04-08T16:18:49;11.60;71.10
2539;DHT22;1280;49.760;9.664;2023-04-08T16:21:26;11.60;71.10
2539;DHT22;1280;49.760;9.664;2023-04-08T16:24:06;11.60;71.10
2539;DHT22;1280;49.760;9.664;2023-04-08T16:26:39;11.60;71.20
2539;DHT22;1280;49.760;9.664;2023-04-08T16:29:12;11.60;71.20
2539;DHT22;1280;49.760;9.664;2023-04-08T16:31:48;11.60;71.20
2539;DHT22;1280;49.760;9.664;2023-04-08T16:34:23;11.60;71.20
2539;DHT22;1280;49.760;9.664;2023-04-08T16:36:57;11.60;71.20
2539;DHT22;1280;49.760;9.664;2023-04-08T16:39:29;11.70;71.20
2539;DHT22;1280;49.760;9.664;2023-04-08T16:42:04;11.70;71.10
2539;DHT22;1280;49.760;9.664;2023-04-08T16:44:38;11.70;70.70
2539;DHT22;1280;49.760;9.664;2023-04-08T16:47:10;11.70;70.40
2539;DHT22;1280;49.760;9.664;2023-04-08T16:49:43;11.70;70.30
2539;DHT22;1280;49.760;9.664;2023-04-08T16:52:16;11.60;70.10
2539;DHT22;1280;49.760;9.664;2023-04-08T16:54:52;11.60;69.90
2539;DHT22;1280;49.760;9.664;2023-04-08T16:57:28;11.60;69.90
2539;DHT22;1280;49.760;9.664;2023-04-08T17:00:00;11.60;69.90
2539;DHT22;1280;49.760;9.664;2023-04-08T17:02:34;11.50;69.80
2539;DHT22;1280;49.760;9.664;2023-04-08T17:05:08;11.50;69.80
2539;DHT22;1280;49.760;9.664;2023-04-08T17:07:49;11.40;69.70
2539;DHT22;1280;49.760;9.664;2023-04-08T17:10:23;11.40;69.70
2539;DHT22;1280;49.760;9.664;2023-04-08T17:12:57;11.30;69.70